createdAt,value
2023-05-13T00:00:11.311Z,0.46
2023-05-13T00:01:28.738Z,0.36
2023-05-13T00:02:46.347Z,0.34
2023-05-13T00:04:03.365Z,0.52
2023-05-13T00:05:20.337Z,0.5
2023-05-13T00:06:37.410Z,0.49
2023-05-13T00:07:54.336Z,0.54
2023-05-13T00:09:11.349Z,0.7
2023-05-13T00:10:28.331Z,0.09
2023-05-13T00:11:45.297Z,0.49
2023-05-13T00:13:02.299Z,0.56
2023-05-13T00:14:19.420Z,0.49
2023-05-13T00:15:36.315Z,0.49
2023-05-13T00:16:53.342Z,0.53
2023-05-13T00:18:10.403Z,0.43
2023-05-13T00:19:27.325Z,0.72
2023-05-13T00:20:44.339Z,0.21
2023-05-13T00:22:01.382Z,0.47
2023-05-13T00:23:18.418Z,0.48
2023-05-13T00:24:35.345Z,0.62
2023-05-13T00:25:52.382Z,0.32
2023-05-13T00:27:09.383Z,0.35
2023-05-13T00:28:26.410Z,0.23
2023-05-13T00:29:43.366Z,0.28
2023-05-13T00:31:00.505Z,0.49
2023-05-13T00:32:17.405Z,0.17
2023-05-13T00:33:34.355Z,0.38
2023-05-13T00:34:51.405Z,0.36
2023-05-13T00:36:08.379Z,0.27
2023-05-13T00:37:25.341Z,0.17
2023-05-13T00:38:42.348Z,0.31
2023-05-13T00:39:59.413Z,0.26
2023-05-13T00:41:16.422Z,0
2023-05-13T00:42:33.353Z,0.35
2023-05-13T00:43:50.358Z,0.26
2023-05-13T00:45:07.403Z,0.23
2023-05-13T00:46:24.432Z,0.1
2023-05-13T00:47:41.454Z,0.5
2023-05-13T00:48:58.395Z,0.29
2023-05-13T00:50:15.487Z,0.28
2023-05-13T00:51:32.366Z,0.33
2023-05-13T00:52:49.372Z,0.34
2023-05-13T00:54:06.439Z,0.29
2023-05-13T00:55:23.423Z,0.32
2023-05-13T00:56:40.430Z,0.15
2023-05-13T00:57:57.423Z,0.15
2023-05-13T00:59:14.395Z,0
2023-05-13T01:00:31.399Z,0.16
2023-05-13T01:01:48.412Z,0.23
2023-05-13T01:03:05.539Z,0.25
2023-05-13T01:04:22.462Z,0.17
2023-05-13T01:05:39.420Z,0.32
2023-05-13T01:06:56.444Z,0.35
2023-05-13T01:08:13.394Z,0.52
2023-05-13T01:09:30.453Z,0.5
2023-05-13T01:10:47.393Z,0.41
2023-05-13T01:12:04.513Z,0.54
2023-05-13T01:13:21.406Z,0.51
2023-05-13T01:14:38.388Z,0.48
2023-05-13T01:15:55.392Z,0.48
2023-05-13T01:17:12.428Z,0.65
2023-05-13T01:18:29.439Z,0.3
2023-05-13T01:19:46.447Z,0.25
2023-05-13T01:21:03.411Z,0.73
2023-05-13T01:22:20.456Z,0.2
2023-05-13T01:23:37.472Z,0.2
2023-05-13T01:24:54.403Z,0.71
2023-05-13T01:26:11.409Z,1.04
2023-05-13T01:27:28.423Z,0.53
2023-05-13T01:28:45.488Z,0.4
2023-05-13T01:30:02.452Z,0.5
2023-05-13T01:31:19.482Z,0.87
2023-05-13T01:32:36.441Z,0.62
2023-05-13T01:33:53.453Z,0.64
2023-05-13T01:35:10.434Z,0.19
2023-05-13T01:36:27.439Z,0.57
2023-05-13T01:37:44.484Z,0.83
2023-05-13T01:39:01.441Z,0.62
2023-05-13T01:40:31.519Z,0.59
2023-05-13T01:41:35.450Z,1.31
2023-05-13T01:42:52.486Z,0.75
2023-05-13T01:44:09.478Z,0.35
2023-05-13T01:45:26.472Z,1.08
2023-05-13T01:46:43.507Z,0.89
2023-05-13T01:48:00.506Z,0.68
2023-05-13T01:49:17.460Z,0.48
2023-05-13T01:50:34.520Z,0.52
2023-05-13T01:51:51.475Z,1
2023-05-13T01:53:08.458Z,0.66
2023-05-13T01:54:25.443Z,0.78
2023-05-13T01:55:42.475Z,0.94
2023-05-13T01:56:59.498Z,0.73
2023-05-13T01:58:16.466Z,0.66
2023-05-13T01:59:33.472Z,0.92
2023-05-13T02:00:50.640Z,0.83
2023-05-13T02:02:08.122Z,1.23
2023-05-13T02:03:24.541Z,1.05
2023-05-13T02:04:41.534Z,1.14
2023-05-13T02:05:58.495Z,1.13
2023-05-13T02:07:15.499Z,0.85
2023-05-13T02:08:32.485Z,1.29
2023-05-13T02:09:49.484Z,0.67
2023-05-13T02:11:06.478Z,0.13
2023-05-13T02:12:23.971Z,0.16
2023-05-13T02:13:40.524Z,0.44
2023-05-13T02:14:57.483Z,0.27
2023-05-13T02:16:14.556Z,0.26
2023-05-13T02:17:31.581Z,0.17
2023-05-13T02:18:48.515Z,0.13
2023-05-13T02:20:05.600Z,0.18
2023-05-13T02:21:22.518Z,0.19
2023-05-13T02:22:39.576Z,0.21
2023-05-13T02:23:56.537Z,0
2023-05-13T02:25:13.493Z,0
2023-05-13T02:26:30.510Z,0.67
2023-05-13T02:27:47.536Z,0.28
2023-05-13T02:29:04.621Z,0
2023-05-13T02:30:21.920Z,0.19
2023-05-13T02:31:38.535Z,0.12
2023-05-13T02:32:55.562Z,0
2023-05-13T02:34:12.616Z,0.34
2023-05-13T02:35:29.540Z,0.07
2023-05-13T02:36:46.540Z,0
2023-05-13T02:38:03.518Z,0.27
2023-05-13T02:39:20.596Z,0.28
2023-05-13T02:40:37.516Z,0.3
2023-05-13T02:41:54.563Z,0.56
2023-05-13T02:43:11.539Z,0.22
2023-05-13T02:44:28.621Z,0.28
2023-05-13T02:45:45.563Z,0.33
2023-05-13T02:47:02.543Z,0.48
2023-05-13T02:48:19.564Z,0.24
2023-05-13T02:49:36.571Z,0.68
2023-05-13T02:50:53.607Z,0.42
2023-05-13T02:52:10.562Z,0.27
2023-05-13T02:53:27.548Z,0.25
2023-05-13T02:54:44.602Z,0.2
2023-05-13T02:56:01.636Z,0.17
2023-05-13T02:57:18.561Z,0.13
2023-05-13T02:58:35.569Z,0.3
2023-05-13T02:59:52.711Z,0.1
2023-05-13T03:01:09.595Z,0.38
2023-05-13T03:02:26.918Z,0.17
2023-05-13T03:03:43.909Z,0.29
2023-05-13T03:05:00.572Z,0.36
2023-05-13T03:06:17.580Z,0
2023-05-13T03:07:34.644Z,0.05
2023-05-13T03:08:51.571Z,0.18
2023-05-13T03:10:08.607Z,0.41
2023-05-13T03:11:25.577Z,0.26
2023-05-13T03:12:42.642Z,0.33
2023-05-13T03:13:59.576Z,0.63
2023-05-13T03:15:16.651Z,0.37
2023-05-13T03:16:33.704Z,0.21
2023-05-13T03:17:50.690Z,0.28
2023-05-13T03:19:07.636Z,0.34
2023-05-13T03:20:24.645Z,0.15
2023-05-13T03:21:41.591Z,0.35
2023-05-13T03:22:58.618Z,0.49
2023-05-13T03:24:15.589Z,0.2
2023-05-13T03:25:32.662Z,0.09
2023-05-13T03:26:49.589Z,0.21
2023-05-13T03:28:06.596Z,0.11
2023-05-13T03:29:23.577Z,0.13
2023-05-13T03:30:40.648Z,0.26
2023-05-13T03:31:57.656Z,0.25
2023-05-13T03:33:14.622Z,0.56
2023-05-13T03:34:31.726Z,0.4
2023-05-13T03:35:48.609Z,0.37
2023-05-13T03:37:05.643Z,0.2
2023-05-13T03:38:22.776Z,0.29
2023-05-13T03:39:39.651Z,0.12
2023-05-13T03:40:56.662Z,0.29
2023-05-13T03:42:13.610Z,0.32
2023-05-13T03:43:30.639Z,0.39
2023-05-13T03:44:47.611Z,0.53
2023-05-13T03:46:04.687Z,0.81
2023-05-13T03:47:22.665Z,0.83
2023-05-13T03:48:39.610Z,0.3
2023-05-13T03:49:56.649Z,0.19
2023-05-13T03:51:13.932Z,0.44
2023-05-13T03:52:30.656Z,0.27
2023-05-13T03:53:47.655Z,0.32
2023-05-13T03:55:04.630Z,0.6
2023-05-13T03:56:21.661Z,0.18
2023-05-13T03:57:38.677Z,0.48
2023-05-13T03:58:55.651Z,0.11
2023-05-13T04:00:12.871Z,0.32
2023-05-13T04:01:29.696Z,0.27
2023-05-13T04:02:46.739Z,0.14
2023-05-13T04:04:03.788Z,0
2023-05-13T04:05:20.688Z,0
2023-05-13T04:06:37.690Z,0.24
2023-05-13T04:07:54.648Z,0.07
2023-05-13T04:09:11.694Z,0.15
2023-05-13T04:10:28.692Z,0
2023-05-13T04:11:45.643Z,0.24
2023-05-13T04:13:02.688Z,0.05
2023-05-13T04:14:19.969Z,0.32
2023-05-13T04:15:36.688Z,0
2023-05-13T04:16:53.804Z,0.04
2023-05-13T04:18:10.699Z,0.19
2023-05-13T04:19:27.732Z,0
2023-05-13T04:20:44.668Z,0
2023-05-13T04:22:01.734Z,0
2023-05-13T04:23:18.683Z,0.28
2023-05-13T04:24:35.688Z,0.18
2023-05-13T04:25:52.730Z,0.29
2023-05-13T04:27:09.699Z,0.42
2023-05-13T04:28:26.687Z,0.31
2023-05-13T04:29:43.753Z,0.16
2023-05-13T04:31:00.741Z,0.23
2023-05-13T04:32:17.756Z,0.38
2023-05-13T04:33:34.710Z,0.16
2023-05-13T04:34:51.692Z,0.18
2023-05-13T04:36:08.692Z,0.16
2023-05-13T04:37:25.849Z,0.39
2023-05-13T04:38:42.716Z,0.47
2023-05-13T04:39:59.729Z,0.41
2023-05-13T04:41:16.706Z,0.3
2023-05-13T04:42:33.748Z,0.41
2023-05-13T04:43:50.760Z,0.92
2023-05-13T04:45:08.427Z,0.64
2023-05-13T04:46:25.752Z,0.33
2023-05-13T04:47:42.798Z,0.55
2023-05-13T04:48:59.748Z,0.98
2023-05-13T04:50:16.737Z,0.92
2023-05-13T04:51:33.782Z,0.84
2023-05-13T04:52:50.768Z,0.73
2023-05-13T04:54:07.739Z,1.11
2023-05-13T04:55:26.845Z,1.18
2023-05-13T04:56:41.742Z,1.02
2023-05-13T04:57:58.729Z,0.59
2023-05-13T04:59:15.728Z,0.82
2023-05-13T05:00:32.782Z,1.2
2023-05-13T05:01:49.761Z,1.2
2023-05-13T05:03:06.819Z,1.02
2023-05-13T05:04:23.813Z,1.74
2023-05-13T05:05:40.821Z,1.55
2023-05-13T05:06:57.813Z,1.08
2023-05-13T05:08:14.739Z,0.52
2023-05-13T05:09:32.037Z,1.13
2023-05-13T05:10:48.813Z,1.55
2023-05-13T05:12:05.750Z,1.63
2023-05-13T05:13:22.829Z,1.67
2023-05-13T05:14:39.758Z,0.77
2023-05-13T05:15:57.179Z,1.83
2023-05-13T05:17:13.827Z,1.45
2023-05-13T05:18:30.914Z,1.17
2023-05-13T05:19:47.766Z,1.34
2023-05-13T05:21:04.829Z,0.99
2023-05-13T05:22:21.827Z,0.59
2023-05-13T05:23:38.788Z,1.19
2023-05-13T05:24:55.756Z,1.81
2023-05-13T05:26:12.861Z,0.77
2023-05-13T05:27:29.822Z,1.37
2023-05-13T05:28:47.359Z,0.85
2023-05-13T05:30:04.869Z,0.83
2023-05-13T05:31:21.916Z,0.71
2023-05-13T05:32:38.863Z,1.52
2023-05-13T05:33:55.832Z,1.46
2023-05-13T05:35:12.809Z,0.83
2023-05-13T05:36:29.805Z,0.47
2023-05-13T05:37:46.812Z,0.66
2023-05-13T05:39:03.795Z,0.88
2023-05-13T05:40:21.124Z,1.39
2023-05-13T05:41:37.875Z,1.24
2023-05-13T05:42:54.806Z,0.79
2023-05-13T05:44:11.836Z,1.83
2023-05-13T05:45:28.809Z,1.79
2023-05-13T05:46:45.853Z,1.81
2023-05-13T05:48:02.892Z,1.13
2023-05-13T05:49:19.848Z,1.87
2023-05-13T05:50:36.810Z,2.72
2023-05-13T05:51:53.853Z,1.28
2023-05-13T05:53:10.905Z,1.24
2023-05-13T05:54:27.868Z,1.48
2023-05-13T05:55:44.900Z,0.87
2023-05-13T05:57:01.885Z,1.19
2023-05-13T05:58:18.907Z,0.86
2023-05-13T05:59:35.821Z,0.9
2023-05-13T06:00:52.830Z,1.01
2023-05-13T06:02:09.894Z,0.81
2023-05-13T06:03:26.902Z,0.71
2023-05-13T06:04:44.013Z,1.94
2023-05-13T06:06:00.869Z,0.84
2023-05-13T06:07:21.098Z,0.78
2023-05-13T06:08:37.896Z,0.5
2023-05-13T06:09:54.855Z,1.15
2023-05-13T06:11:12.307Z,0.77
2023-05-13T06:12:28.860Z,0.7
2023-05-13T06:13:45.910Z,0.92
2023-05-13T06:15:03.579Z,0.8
2023-05-13T06:16:20.927Z,0.77
2023-05-13T06:17:38.138Z,1.19
2023-05-13T06:18:54.940Z,0.84
2023-05-13T06:20:11.906Z,1.64
2023-05-13T06:21:28.869Z,1.92
2023-05-13T06:22:45.882Z,2.1
2023-05-13T06:24:02.868Z,3.19
2023-05-13T06:25:19.900Z,3.26
2023-05-13T06:26:36.908Z,2.22
2023-05-13T06:27:53.895Z,3.25
2023-05-13T06:29:10.890Z,3.85
2023-05-13T06:30:27.917Z,2.05
2023-05-13T06:31:45.042Z,2.57
2023-05-13T06:33:02.740Z,1.83
2023-05-13T06:34:18.952Z,2.2
2023-05-13T06:35:35.927Z,1.52
2023-05-13T06:36:52.921Z,1.13
2023-05-13T06:38:09.876Z,1.13
2023-05-13T06:39:26.948Z,0.87
2023-05-13T06:40:43.889Z,1.28
2023-05-13T06:42:00.891Z,1.09
2023-05-13T06:43:17.909Z,0.97
2023-05-13T06:44:34.914Z,0.85
2023-05-13T06:45:51.924Z,1.07
2023-05-13T06:47:09.032Z,1.4
2023-05-13T06:48:25.896Z,0.78
2023-05-13T06:49:43.174Z,1.1
2023-05-13T06:50:59.973Z,0.99
2023-05-13T06:52:16.908Z,0.87
2023-05-13T06:53:33.929Z,1.35
2023-05-13T06:54:50.911Z,0.82
2023-05-13T06:56:07.965Z,1.05
2023-05-13T06:57:29.693Z,0.92
2023-05-13T06:58:42.309Z,1.86
2023-05-13T06:59:58.952Z,1.36
2023-05-13T07:01:16.137Z,1.25
2023-05-13T07:02:32.994Z,2.96
2023-05-13T07:03:49.963Z,1.56
2023-05-13T07:05:07.252Z,1.72
2023-05-13T07:06:23.820Z,2.98
2023-05-13T07:07:40.798Z,3.03
2023-05-13T07:08:57.868Z,1.31
2023-05-13T07:10:14.847Z,1.57
2023-05-13T07:11:31.817Z,1.7
2023-05-13T07:12:48.797Z,1.99
2023-05-13T07:14:05.839Z,2.15
2023-05-13T07:15:23.749Z,1.43
2023-05-13T07:16:40.925Z,1.26
2023-05-13T07:17:57.879Z,1.15
2023-05-13T07:19:14.862Z,0.7
2023-05-13T07:20:31.827Z,1.27
2023-05-13T07:21:49.106Z,1.45
2023-05-13T07:23:05.891Z,1.23
2023-05-13T07:24:22.897Z,1.35
2023-05-13T07:25:39.849Z,1.08
2023-05-13T07:26:56.861Z,1.41
2023-05-13T07:28:13.861Z,1.05
2023-05-13T07:29:30.859Z,1.04
2023-05-13T07:30:47.862Z,1.5
2023-05-13T07:32:04.869Z,1
2023-05-13T07:33:21.926Z,1.05
2023-05-13T07:34:38.890Z,1.69
2023-05-13T07:35:55.879Z,0.93
2023-05-13T07:37:12.872Z,0.71
2023-05-13T07:38:29.892Z,2.21
2023-05-13T07:39:46.861Z,1.65
2023-05-13T07:41:03.995Z,1.1
2023-05-13T07:42:20.925Z,1.86
2023-05-13T07:43:37.895Z,1.59
2023-05-13T07:44:54.924Z,1.39
2023-05-13T07:46:11.908Z,0.76
2023-05-13T07:47:28.927Z,1.08
2023-05-13T07:48:45.878Z,0.83
2023-05-13T07:50:02.922Z,0.83
2023-05-13T07:51:19.881Z,1.63
2023-05-13T07:52:36.928Z,1.45
2023-05-13T07:53:53.877Z,1.06
2023-05-13T07:55:10.997Z,1.53
2023-05-13T07:56:27.881Z,0.76
2023-05-13T07:57:44.903Z,1.2
2023-05-13T07:59:01.924Z,0.48
2023-05-13T08:00:18.917Z,0.66
2023-05-13T08:01:35.910Z,1.74
2023-05-13T08:02:53.031Z,1.27
2023-05-13T08:04:10.012Z,2.36
2023-05-13T08:05:26.896Z,1.61
2023-05-13T08:06:43.963Z,1.08
2023-05-13T08:08:00.988Z,0.72
2023-05-13T08:09:17.949Z,0.56
2023-05-13T08:10:34.917Z,0.9
2023-05-13T08:11:51.915Z,1
2023-05-13T08:13:08.989Z,1
2023-05-13T08:14:25.936Z,2.2
2023-05-13T08:15:42.963Z,1.41
2023-05-13T08:16:59.934Z,1.81
2023-05-13T08:18:16.996Z,0.56
2023-05-13T08:19:33.995Z,1.32
2023-05-13T08:20:51.008Z,1.52
2023-05-13T08:22:07.918Z,1.5
2023-05-13T08:23:36.786Z,0.72
2023-05-13T08:24:41.956Z,0.97
2023-05-13T08:25:58.968Z,1.51
2023-05-13T08:27:16.282Z,1.08
2023-05-13T08:28:32.971Z,0.94
2023-05-13T08:29:49.974Z,1.19
2023-05-13T08:31:06.967Z,1.14
2023-05-13T08:32:23.928Z,1.41
2023-05-13T08:33:41.002Z,1.55
2023-05-13T08:34:58.024Z,1.92
2023-05-13T08:36:14.950Z,1.31
2023-05-13T08:37:31.951Z,0.7
2023-05-13T08:38:49.007Z,1.41
2023-05-13T08:40:05.985Z,0.98
2023-05-13T08:41:23.058Z,0.48
2023-05-13T08:42:40.024Z,1.4
2023-05-13T08:43:57.022Z,1.33
2023-05-13T08:45:13.969Z,1.19
2023-05-13T08:46:31.087Z,2.32
2023-05-13T08:47:48.035Z,1.55
2023-05-13T08:49:05.013Z,2.13
2023-05-13T08:50:22.031Z,1.79
2023-05-13T08:51:39.036Z,1.42
2023-05-13T08:52:55.980Z,0.58
2023-05-13T08:54:13.041Z,0.96
2023-05-13T08:55:30.033Z,0.77
2023-05-13T08:56:46.971Z,1.09
2023-05-13T08:58:04.040Z,0.96
2023-05-13T08:59:20.979Z,1.97
2023-05-13T09:00:38.045Z,1.07
2023-05-13T09:01:54.994Z,1.03
2023-05-13T09:03:11.989Z,0.72
2023-05-13T09:04:29.062Z,1.12
2023-05-13T09:05:46.030Z,0.91
2023-05-13T09:07:03.054Z,0.93
2023-05-13T09:08:19.989Z,0.8
2023-05-13T09:09:37.179Z,1.47
2023-05-13T09:10:53.998Z,1.24
2023-05-13T09:12:11.018Z,1.65
2023-05-13T09:13:28.029Z,0.53
2023-05-13T09:14:45.081Z,0.71
2023-05-13T09:16:02.080Z,0.68
2023-05-13T09:17:19.012Z,0.86
2023-05-13T09:18:36.138Z,1.63
2023-05-13T09:19:53.111Z,0.51
2023-05-13T09:21:10.060Z,1.45
2023-05-13T09:22:27.021Z,1.62
2023-05-13T09:23:44.069Z,1.26
2023-05-13T09:25:01.089Z,1.47
2023-05-13T09:26:18.021Z,1.1
2023-05-13T09:27:35.078Z,0.51
2023-05-13T09:28:52.033Z,0.52
2023-05-13T09:30:09.032Z,1.99
2023-05-13T09:31:26.061Z,0.63
2023-05-13T09:32:43.201Z,0.27
2023-05-13T09:34:00.049Z,0.51
2023-05-13T09:35:17.213Z,0.57
2023-05-13T09:36:34.032Z,0.64
2023-05-13T09:37:51.093Z,0.47
2023-05-13T09:39:08.077Z,1.09
2023-05-13T09:40:25.305Z,1.3
2023-05-13T09:41:42.062Z,0.73
2023-05-13T09:42:59.112Z,1.22
2023-05-13T09:44:16.140Z,0.55
2023-05-13T09:45:33.060Z,0.62
2023-05-13T09:46:50.113Z,1.31
2023-05-13T09:48:07.144Z,0.48
2023-05-13T09:49:24.081Z,0.56
2023-05-13T09:50:41.090Z,1.56
2023-05-13T09:51:58.071Z,0.78
2023-05-13T09:53:15.094Z,0.88
2023-05-13T09:54:33.081Z,1.38
2023-05-13T09:55:49.109Z,1.03
2023-05-13T09:57:06.266Z,1.42
2023-05-13T09:58:23.169Z,2.76
2023-05-13T09:59:40.099Z,2.15
2023-05-13T10:00:57.233Z,1.17
2023-05-13T10:02:14.095Z,1.06
2023-05-13T10:03:31.114Z,1.7
2023-05-13T10:04:48.119Z,1.58
2023-05-13T10:06:05.554Z,1.26
2023-05-13T10:07:22.100Z,2.64
2023-05-13T10:08:39.145Z,2.91
2023-05-13T10:09:56.129Z,2.63
2023-05-13T10:11:13.773Z,3.29
2023-05-13T10:12:30.122Z,2.28
2023-05-13T10:13:47.115Z,2.58
2023-05-13T10:15:04.241Z,2.01
2023-05-13T10:16:21.209Z,1.68
2023-05-13T10:17:38.183Z,1.39
2023-05-13T10:18:55.234Z,1.31
2023-05-13T10:20:12.133Z,0.86
2023-05-13T10:21:29.148Z,1.81
2023-05-13T10:22:46.138Z,2.02
2023-05-13T10:24:03.159Z,2.28
2023-05-13T10:25:20.132Z,3.51
2023-05-13T10:26:37.169Z,2.12
2023-05-13T10:27:54.184Z,1.02
2023-05-13T10:29:11.141Z,0.99
2023-05-13T10:30:28.154Z,1.99
2023-05-13T10:31:45.496Z,2.6
2023-05-13T10:33:02.198Z,2.38
2023-05-13T10:34:19.146Z,0.84
2023-05-13T10:35:37.717Z,0.85
2023-05-13T10:36:53.189Z,1.71
2023-05-13T10:38:10.183Z,2.6
2023-05-13T10:39:27.135Z,2.27
2023-05-13T10:40:44.158Z,2.54
2023-05-13T10:42:01.541Z,1.55
2023-05-13T10:43:18.167Z,1.16
2023-05-13T10:44:35.175Z,0.68
2023-05-13T10:45:52.281Z,1.75
2023-05-13T10:47:09.218Z,1.8
2023-05-13T10:48:26.282Z,1.75
2023-05-13T10:49:43.166Z,1.38
2023-05-13T10:51:00.178Z,2.22
2023-05-13T10:52:17.242Z,3.05
2023-05-13T10:53:34.188Z,2.82
2023-05-13T10:54:51.174Z,2.31
2023-05-13T10:56:08.225Z,2.83
2023-05-13T10:57:25.298Z,1.27
2023-05-13T10:58:42.255Z,1.39
2023-05-13T10:59:59.636Z,1.32
2023-05-13T11:01:16.260Z,2.51
2023-05-13T11:02:33.264Z,1.77
2023-05-13T11:03:50.338Z,2.38
2023-05-13T11:05:07.187Z,1.42
2023-05-13T11:06:24.324Z,1.64
2023-05-13T11:07:41.222Z,1.31
2023-05-13T11:08:58.519Z,1.01
2023-05-13T11:10:15.382Z,0.63
2023-05-13T11:11:32.246Z,1.33
2023-05-13T11:12:49.346Z,1.87
2023-05-13T11:14:08.170Z,1.49
2023-05-13T11:15:23.247Z,1.61
2023-05-13T11:16:40.278Z,1.01
2023-05-13T11:17:57.254Z,1.88
2023-05-13T11:19:14.264Z,1.31
2023-05-13T11:20:35.440Z,1.35
2023-05-13T11:21:48.231Z,2.32
2023-05-13T11:23:05.290Z,1.48
2023-05-13T11:24:22.243Z,2.36
2023-05-13T11:25:39.252Z,0.81
2023-05-13T11:26:56.271Z,1.19
2023-05-13T11:28:13.289Z,1.24
2023-05-13T11:29:30.258Z,1.49
2023-05-13T11:30:47.294Z,1.33
2023-05-13T11:32:04.272Z,1.14
2023-05-13T11:33:21.244Z,2.25
2023-05-13T11:34:38.297Z,3.42
2023-05-13T11:35:55.242Z,2.54
2023-05-13T11:37:12.259Z,2.31
2023-05-13T11:38:29.254Z,1.52
2023-05-13T11:39:46.291Z,4.01
2023-05-13T11:41:03.244Z,2.04
2023-05-13T11:42:20.290Z,2.48
2023-05-13T11:43:37.291Z,1.82
2023-05-13T11:44:54.288Z,1.95
2023-05-13T11:46:11.366Z,1.45
2023-05-13T11:47:28.426Z,1.93
2023-05-13T11:48:45.276Z,0.79
2023-05-13T11:50:02.325Z,1.78
2023-05-13T11:51:19.356Z,2.03
2023-05-13T11:52:37.633Z,1.3
2023-05-13T11:53:54.353Z,2.32
2023-05-13T11:55:11.320Z,0.99
2023-05-13T11:56:28.313Z,1.82
2023-05-13T11:57:45.336Z,1.39
2023-05-13T11:59:02.343Z,1.6
2023-05-13T12:00:19.320Z,1.12
2023-05-13T12:01:36.716Z,2.13
2023-05-13T12:02:53.618Z,2.32
2023-05-13T12:04:10.324Z,2.3
2023-05-13T12:05:27.659Z,1.26
2023-05-13T12:06:44.511Z,0.94
2023-05-13T12:08:01.322Z,2.94
2023-05-13T12:09:18.438Z,1.44
2023-05-13T12:10:35.329Z,1.8
2023-05-13T12:11:52.315Z,2.4
2023-05-13T12:13:09.336Z,2.24
2023-05-13T12:14:27.726Z,3.95
2023-05-13T12:15:43.391Z,1.51
2023-05-13T12:17:00.356Z,2.16
2023-05-13T12:18:17.346Z,1.34
2023-05-13T12:19:34.386Z,1.5
2023-05-13T12:20:51.363Z,1.28
2023-05-13T12:22:08.357Z,1.34
2023-05-13T12:23:25.351Z,2.42
2023-05-13T12:24:42.374Z,1.41
2023-05-13T12:25:59.394Z,1.41
2023-05-13T12:27:16.387Z,1.17
2023-05-13T12:28:33.386Z,2.61
2023-05-13T12:29:50.409Z,1.46
2023-05-13T12:31:07.711Z,2.43
2023-05-13T12:32:24.413Z,1.85
2023-05-13T12:33:41.392Z,3.45
2023-05-13T12:34:58.375Z,1.28
2023-05-13T12:36:15.477Z,1.13
2023-05-13T12:37:32.373Z,2.8
2023-05-13T12:38:50.968Z,1.41
2023-05-13T12:40:13.207Z,1.53
2023-05-13T12:41:29.443Z,2.66
2023-05-13T12:42:46.434Z,1.62
2023-05-13T12:44:03.454Z,2.83
2023-05-13T12:45:20.569Z,2.94
2023-05-13T12:46:37.707Z,3.21
2023-05-13T12:47:54.623Z,2.07
2023-05-13T12:49:12.401Z,2.25
2023-05-13T12:50:29.518Z,1.18
2023-05-13T12:51:46.473Z,2.08
2023-05-13T12:53:03.443Z,2.54
2023-05-13T12:54:20.445Z,2.57
2023-05-13T12:55:37.581Z,3.52
2023-05-13T12:56:54.405Z,4.04
2023-05-13T12:58:11.428Z,2.92
2023-05-13T12:59:29.458Z,3.64
2023-05-13T13:00:47.166Z,2.14
2023-05-13T13:02:04.432Z,2.96
2023-05-13T13:03:24.144Z,4.58
2023-05-13T13:04:39.026Z,4.07
2023-05-13T13:05:56.687Z,2.49
2023-05-13T13:07:13.449Z,3.24
2023-05-13T13:08:30.640Z,3.99
2023-05-13T13:09:47.498Z,2.96
2023-05-13T13:11:04.471Z,3.37
2023-05-13T13:12:21.462Z,3.75
2023-05-13T13:13:39.494Z,1.84
2023-05-13T13:14:55.420Z,1.54
2023-05-13T13:18:46.256Z,4.97
2023-05-13T13:20:18.119Z,2.72
2023-05-13T13:21:47.535Z,3.17
2023-05-13T13:23:07.597Z,4.1
2023-05-13T13:24:24.570Z,3.33
2023-05-13T13:25:41.467Z,2.9
2023-05-13T13:26:58.572Z,2.44
2023-05-13T13:28:15.496Z,2.74
2023-05-13T13:29:32.547Z,4.91
2023-05-13T13:30:49.486Z,5.24
2023-05-13T13:32:20.472Z,4.12
2023-05-13T13:33:40.498Z,3.48
2023-05-13T13:34:57.516Z,2.24
2023-05-13T13:36:14.465Z,2.22
2023-05-13T13:37:31.469Z,1.82
2023-05-13T13:38:48.494Z,2.71
2023-05-13T13:40:05.550Z,2.13
2023-05-13T13:41:22.460Z,2.34
2023-05-13T13:42:44.387Z,2.07
2023-05-13T13:43:56.496Z,2.21
2023-05-13T13:45:13.533Z,1.83
2023-05-13T13:46:30.497Z,1.26
2023-05-13T13:47:47.791Z,1.46
2023-05-13T13:49:13.038Z,1.83
2023-05-13T13:50:21.965Z,1.02
2023-05-13T13:51:38.544Z,1.99
2023-05-13T13:52:55.680Z,3.32
2023-05-13T13:54:12.473Z,1
2023-05-13T13:55:29.520Z,1.49
2023-05-13T13:56:46.650Z,1.43
2023-05-13T13:58:03.556Z,1.94
2023-05-13T13:59:20.488Z,2.4
2023-05-13T14:00:37.490Z,2.34
2023-05-13T14:01:54.602Z,1.81
2023-05-13T14:03:11.681Z,2.06
2023-05-13T14:04:28.544Z,1.88
2023-05-13T14:05:45.512Z,1.53
2023-05-13T14:07:02.562Z,2.56
2023-05-13T14:08:19.503Z,1.49
2023-05-13T14:09:36.703Z,2.93
2023-05-13T14:10:53.550Z,5.1
2023-05-13T14:12:10.609Z,4.13
2023-05-13T14:13:27.653Z,4.13
2023-05-13T14:14:44.542Z,2.98
2023-05-13T14:16:01.602Z,1.81
2023-05-13T14:17:18.550Z,1.97
2023-05-13T14:18:35.617Z,1.49
2023-05-13T14:19:52.567Z,0.93
2023-05-13T14:21:09.635Z,1.09
2023-05-13T14:22:26.553Z,1.84
2023-05-13T14:23:43.552Z,2.71
2023-05-13T14:25:00.550Z,1.41
2023-05-13T14:26:17.835Z,3.49
2023-05-13T14:27:34.517Z,1.52
2023-05-13T14:28:51.631Z,2.26
2023-05-13T14:30:08.589Z,3.18
2023-05-13T14:31:25.682Z,3.25
2023-05-13T14:32:42.643Z,1.82
2023-05-13T14:33:59.970Z,2.08
2023-05-13T14:35:16.555Z,2.76
2023-05-13T14:36:33.631Z,1.75
2023-05-13T14:37:50.589Z,1.67
2023-05-13T14:39:07.632Z,2.72
2023-05-13T14:40:24.718Z,1.98
2023-05-13T14:41:41.554Z,2.59
2023-05-13T14:42:58.560Z,2.67
2023-05-13T14:44:15.729Z,2.15
2023-05-13T14:45:32.580Z,0.81
2023-05-13T14:46:49.679Z,1.28
2023-05-13T14:48:06.778Z,0.84
2023-05-13T14:49:23.622Z,1.47
2023-05-13T14:50:41.977Z,1.44
2023-05-13T14:51:57.697Z,1.17
2023-05-13T14:53:14.602Z,1.17
2023-05-13T14:54:32.180Z,1.47
2023-05-13T14:55:50.673Z,0.75
2023-05-13T14:57:05.792Z,1.26
2023-05-13T14:58:22.589Z,0.68
2023-05-13T14:59:39.611Z,0.85
2023-05-13T15:00:56.680Z,1.04
2023-05-13T15:02:13.706Z,0.56
2023-05-13T15:03:30.723Z,0.97
2023-05-13T15:04:47.610Z,0.7
2023-05-13T15:06:04.610Z,0.74
2023-05-13T15:07:21.819Z,0.88
2023-05-13T15:08:38.625Z,0.68
2023-05-13T15:09:55.688Z,0.47
2023-05-13T15:11:12.717Z,1.23
2023-05-13T15:12:29.659Z,0.8
2023-05-13T15:13:46.630Z,0.8
2023-05-13T15:15:03.637Z,0.51
2023-05-13T15:16:20.714Z,0.51
2023-05-13T15:17:37.669Z,0.81
2023-05-13T15:18:54.722Z,0.94
2023-05-13T15:20:11.646Z,0.74
2023-05-13T15:21:28.629Z,1.13
2023-05-13T15:22:45.731Z,1.75
2023-05-13T15:24:02.765Z,0.96
2023-05-13T15:25:19.658Z,1.1
2023-05-13T15:26:36.668Z,0.88
2023-05-13T15:27:53.688Z,0.39
2023-05-13T15:29:10.668Z,0.89
2023-05-13T15:30:27.673Z,0.94
2023-05-13T15:31:44.655Z,0.74
2023-05-13T15:33:01.778Z,0.41
2023-05-13T15:34:18.649Z,0.49
2023-05-13T15:35:35.652Z,0.5
2023-05-13T15:36:52.706Z,1.04
2023-05-13T15:38:09.708Z,0.84
2023-05-13T15:39:26.719Z,0.63
2023-05-13T15:40:43.667Z,0.84
2023-05-13T15:42:00.701Z,0.54
2023-05-13T15:43:17.712Z,0.77
2023-05-13T15:44:34.673Z,0.79
2023-05-13T15:45:51.830Z,0.86
2023-05-13T15:47:08.829Z,0.66
2023-05-13T15:48:25.809Z,0.7
2023-05-13T15:49:42.687Z,0.51
2023-05-13T15:50:59.716Z,0.69
2023-05-13T15:52:16.691Z,0.73
2023-05-13T15:53:33.771Z,0.55
2023-05-13T15:54:50.761Z,0.4
2023-05-13T15:56:07.761Z,0.29
2023-05-13T15:57:24.747Z,0.07
2023-05-13T15:58:41.704Z,0.5
2023-05-13T15:59:58.758Z,0.26
2023-05-13T16:01:15.764Z,0.86
2023-05-13T16:02:32.980Z,0.34
2023-05-13T16:03:49.817Z,0.17
2023-05-13T16:05:06.758Z,0.64
2023-05-13T16:06:23.720Z,0.59
2023-05-13T16:07:40.788Z,0.95
2023-05-13T16:08:57.908Z,0.38
2023-05-13T16:10:14.739Z,0.38
2023-05-13T16:11:31.722Z,0.37
2023-05-13T16:12:48.757Z,0.66
2023-05-13T16:14:05.733Z,0.43
2023-05-13T16:15:22.792Z,0.68
2023-05-13T16:16:39.826Z,0.39
2023-05-13T16:17:56.937Z,0.62
2023-05-13T16:19:13.824Z,0
2023-05-13T16:20:30.811Z,0.16
2023-05-13T16:21:47.736Z,0.64
2023-05-13T16:23:04.747Z,0.32
2023-05-13T16:24:21.799Z,0.38
2023-05-13T16:25:38.732Z,0.35
2023-05-13T16:26:55.734Z,0.36
2023-05-13T16:28:13.227Z,0.28
2023-05-13T16:29:29.734Z,0.42
2023-05-13T16:30:46.745Z,0.22
2023-05-13T16:32:03.752Z,0.5
2023-05-13T16:33:21.522Z,0.46
2023-05-13T16:34:38.768Z,0.16
2023-05-13T16:35:55.736Z,0.32
2023-05-13T16:37:12.921Z,0.47
2023-05-13T16:38:29.855Z,0.07
2023-05-13T16:39:46.782Z,0.45
2023-05-13T16:41:03.747Z,0.24
2023-05-13T16:42:20.853Z,0.6
2023-05-13T16:43:38.631Z,0.48
2023-05-13T16:44:55.827Z,0.57
2023-05-13T16:46:12.991Z,0.2
2023-05-13T16:47:29.995Z,0.38
2023-05-13T16:48:47.031Z,0.19
2023-05-13T16:50:03.820Z,0.2
2023-05-13T16:51:20.799Z,0.07
2023-05-13T16:52:37.807Z,0.15
2023-05-13T16:53:54.884Z,0.24
2023-05-13T16:55:11.885Z,0.19
2023-05-13T16:56:28.809Z,0.17
2023-05-13T16:57:45.797Z,0.19
2023-05-13T16:59:02.872Z,0
2023-05-13T17:00:19.833Z,0
2023-05-13T17:01:36.896Z,0
2023-05-13T17:02:53.922Z,0
2023-05-13T17:04:11.071Z,0
2023-05-13T17:05:27.886Z,0
2023-05-13T17:06:44.836Z,0.2
2023-05-13T17:08:01.814Z,0
2023-05-13T17:09:18.834Z,0.11
2023-05-13T17:10:38.426Z,0
2023-05-13T17:11:54.866Z,0.16
2023-05-13T17:13:11.862Z,0
2023-05-13T17:14:28.809Z,0
2023-05-13T17:15:45.933Z,0